Airport METAR Information

LTBA 240720Z 35008KT CAVOK 06/00 Q1034 NOSIG

VATSIM Livefeed

Card image cap

ATC Bookings

Position Full Name Date Time (UTC)
LTC_S_CTR Ben Wright 29/01/2020 1800 ‐ 2100
LTC_N_CTR Ben Wright 29/01/2020 1800 ‐ 2100
LTC_N_CTR Ben Wright 01/02/2020 1700 ‐ 2200
LTC_S_CTR Ben Wright 01/02/2020 1700 ‐ 2200
LTC_N_CTR Ben Wright 05/02/2020 1800 ‐ 2100
LTC_S_CTR Ben Wright 05/02/2020 1800 ‐ 2100

Card image cap

Active ATC

No controllers online

Blog

Read our latest news and get to know us better.